sensor_id;sensor_type;location;lat;lon;timestamp;P1;durP1;ratioP1;P2;durP2;ratioP2
71351;SDS011;59159;51.652;4.864;2022-10-31T00:01:22;6.32;;;2.30;;
71351;SDS011;59159;51.652;4.864;2022-10-31T00:03:49;6.43;;;2.10;;
71351;SDS011;59159;51.652;4.864;2022-10-31T00:06:15;6.50;;;2.28;;
71351;SDS011;59159;51.652;4.864;2022-10-31T00:08:45;6.15;;;1.98;;
71351;SDS011;59159;51.652;4.864;2022-10-31T00:11:11;5.57;;;2.13;;
71351;SDS011;59159;51.652;4.864;2022-10-31T00:13:37;5.82;;;2.00;;
71351;SDS011;59159;51.652;4.864;2022-10-31T00:16:03;5.78;;;2.00;;
71351;SDS011;59159;51.652;4.864;2022-10-31T00:18:29;7.00;;;2.30;;
71351;SDS011;59159;51.652;4.864;2022-10-31T00:21:02;6.40;;;2.43;;
71351;SDS011;59159;51.652;4.864;2022-10-31T00:23:28;6.72;;;2.67;;
71351;SDS011;59159;51.652;4.864;2022-10-31T00:25:54;7.22;;;2.53;;
71351;SDS011;59159;51.652;4.864;2022-10-31T00:28:25;6.47;;;2.23;;
71351;SDS011;59159;51.652;4.864;2022-10-31T00:30:51;5.30;;;1.90;;
71351;SDS011;59159;51.652;4.864;2022-10-31T00:33:17;6.38;;;2.53;;
71351;SDS011;59159;51.652;4.864;2022-10-31T00:35:48;5.40;;;2.10;;
71351;SDS011;59159;51.652;4.864;2022-10-31T00:38:14;7.85;;;2.88;;
71351;SDS011;59159;51.652;4.864;2022-10-31T00:40:40;7.43;;;2.65;;
71351;SDS011;59159;51.652;4.864;2022-10-31T00:43:06;6.57;;;2.65;;
71351;SDS011;59159;51.652;4.864;2022-10-31T00:45:32;6.17;;;2.70;;
71351;SDS011;59159;51.652;4.864;2022-10-31T00:47:58;6.40;;;2.33;;
71351;SDS011;59159;51.652;4.864;2022-10-31T00:50:24;6.88;;;2.30;;
71351;SDS011;59159;51.652;4.864;2022-10-31T00:52:50;7.53;;;2.60;;
71351;SDS011;59159;51.652;4.864;2022-10-31T00:55:16;7.22;;;2.40;;
71351;SDS011;59159;51.652;4.864;2022-10-31T00:57:42;6.85;;;2.42;;
71351;SDS011;59159;51.652;4.864;2022-10-31T01:00:08;6.00;;;2.30;;
71351;SDS011;59159;51.652;4.864;2022-10-31T01:02:34;6.75;;;2.20;;
71351;SDS011;59159;51.652;4.864;2022-10-31T01:05:00;6.22;;;2.38;;
71351;SDS011;59159;51.652;4.864;2022-10-31T01:07:26;6.18;;;2.22;;
71351;SDS011;59159;51.652;4.864;2022-10-31T01:09:52;6.43;;;2.50;;
71351;SDS011;59159;51.652;4.864;2022-10-31T01:12:18;7.07;;;2.72;;
71351;SDS011;59159;51.652;4.864;2022-10-31T01:14:44;6.18;;;2.40;;
71351;SDS011;59159;51.652;4.864;2022-10-31T01:17:14;7.20;;;2.10;;
71351;SDS011;59159;51.652;4.864;2022-10-31T01:19:40;6.55;;;2.58;;
71351;SDS011;59159;51.652;4.864;2022-10-31T01:22:06;7.47;;;2.60;;
71351;SDS011;59159;51.652;4.864;2022-10-31T01:24:32;7.87;;;2.40;;
71351;SDS011;59159;51.652;4.864;2022-10-31T01:26:58;7.22;;;2.30;;
71351;SDS011;59159;51.652;4.864;2022-10-31T01:29:24;6.95;;;3.45;;
71351;SDS011;59159;51.652;4.864;2022-10-31T01:31:50;9.60;;;2.38;;
71351;SDS011;59159;51.652;4.864;2022-10-31T01:34:16;6.13;;;2.50;;
71351;SDS011;59159;51.652;4.864;2022-10-31T01:36:43;6.03;;;2.40;;
71351;SDS011;59159;51.652;4.864;2022-10-31T01:39:10;6.68;;;2.50;;
71351;SDS011;59159;51.652;4.864;2022-10-31T01:41:39;5.50;;;2.20;;
71351;SDS011;59159;51.652;4.864;2022-10-31T01:46:42;5.85;;;2.45;;
71351;SDS011;59159;51.652;4.864;2022-10-31T01:49:11;6.30;;;2.20;;
71351;SDS011;59159;51.652;4.864;2022-10-31T01:51:40;5.75;;;2.45;;
71351;SDS011;59159;51.652;4.864;2022-10-31T01:54:08;6.32;;;2.63;;
71351;SDS011;59159;51.652;4.864;2022-10-31T01:56:36;7.50;;;2.80;;
71351;SDS011;59159;51.652;4.864;2022-10-31T01:59:04;6.93;;;2.40;;
71351;SDS011;59159;51.652;4.864;2022-10-31T02:01:31;6.07;;;2.40;;
71351;SDS011;59159;51.652;4.864;2022-10-31T02:03:57;6.95;;;2.25;;
71351;SDS011;59159;51.652;4.864;2022-10-31T02:06:29;5.57;;;2.00;;
71351;SDS011;59159;51.652;4.864;2022-10-31T02:08:58;5.90;;;2.45;;
71351;SDS011;59159;51.652;4.864;2022-10-31T02:11:25;7.65;;;2.70;;
71351;SDS011;59159;51.652;4.864;2022-10-31T02:13:51;6.70;;;2.23;;
71351;SDS011;59159;51.652;4.864;2022-10-31T02:16:17;6.72;;;2.50;;
71351;SDS011;59159;51.652;4.864;2022-10-31T02:18:43;8.10;;;3.03;;
71351;SDS011;59159;51.652;4.864;2022-10-31T02:26:36;6.15;;;2.22;;
71351;SDS011;59159;51.652;4.864;2022-10-31T02:36:53;7.43;;;2.65;;
71351;SDS011;59159;51.652;4.864;2022-10-31T02:39:25;5.83;;;2.03;;
71351;SDS011;59159;51.652;4.864;2022-10-31T02:42:03;5.93;;;2.40;;
71351;SDS011;59159;51.652;4.864;2022-10-31T02:49:57;6.63;;;2.47;;
71351;SDS011;59159;51.652;4.864;2022-10-31T02:52:29;6.93;;;2.65;;
71351;SDS011;59159;51.652;4.864;2022-10-31T02:54:55;8.20;;;2.53;;
71351;SDS011;59159;51.652;4.864;2022-10-31T02:57:25;7.73;;;2.70;;
71351;SDS011;59159;51.652;4.864;2022-10-31T02:59:55;7.35;;;2.20;;
71351;SDS011;59159;51.652;4.864;2022-10-31T03:04:56;6.07;;;2.30;;
71351;SDS011;59159;51.652;4.864;2022-10-31T03:07:30;6.45;;;2.33;;
71351;SDS011;59159;51.652;4.864;2022-10-31T03:10:02;6.93;;;2.50;;
71351;SDS011;59159;51.652;4.864;2022-10-31T03:12:38;6.57;;;2.50;;
71351;SDS011;59159;51.652;4.864;2022-10-31T03:15:16;6.57;;;2.43;;
71351;SDS011;59159;51.652;4.864;2022-10-31T03:17:54;6.97;;;2.45;;
71351;SDS011;59159;51.652;4.864;2022-10-31T03:20:22;7.85;;;2.60;;
71351;SDS011;59159;51.652;4.864;2022-10-31T03:22:50;6.20;;;2.40;;
71351;SDS011;59159;51.652;4.864;2022-10-31T03:25:17;6.35;;;2.63;;
71351;SDS011;59159;51.652;4.864;2022-10-31T03:27:43;6.10;;;2.60;;
71351;SDS011;59159;51.652;4.864;2022-10-31T03:30:10;7.60;;;2.60;;
71351;SDS011;59159;51.652;4.864;2022-10-31T03:32:38;5.97;;;2.42;;
71351;SDS011;59159;51.652;4.864;2022-10-31T03:35:05;5.72;;;2.38;;
71351;SDS011;59159;51.652;4.864;2022-10-31T03:37:32;6.65;;;2.50;;
71351;SDS011;59159;51.652;4.864;2022-10-31T03:39:59;6.57;;;2.53;;
71351;SDS011;59159;51.652;4.864;2022-10-31T03:42:27;6.63;;;2.70;;
71351;SDS011;59159;51.652;4.864;2022-10-31T03:47:29;5.70;;;2.40;;
71351;SDS011;59159;51.652;4.864;2022-10-31T03:49:55;6.15;;;2.53;;
71351;SDS011;59159;51.652;4.864;2022-10-31T03:54:58;7.73;;;3.00;;
71351;SDS011;59159;51.652;4.864;2022-10-31T03:57:26;7.25;;;2.55;;
71351;SDS011;59159;51.652;4.864;2022-10-31T03:59:55;7.28;;;2.53;;
71351;SDS011;59159;51.652;4.864;2022-10-31T04:02:23;5.85;;;2.55;;
71351;SDS011;59159;51.652;4.864;2022-10-31T04:04:49;6.30;;;2.87;;
71351;SDS011;59159;51.652;4.864;2022-10-31T04:07:16;5.82;;;2.25;;
71351;SDS011;59159;51.652;4.864;2022-10-31T04:09:43;6.47;;;2.58;;
71351;SDS011;59159;51.652;4.864;2022-10-31T04:12:11;5.33;;;2.30;;
71351;SDS011;59159;51.652;4.864;2022-10-31T04:14:40;5.93;;;2.22;;
71351;SDS011;59159;51.652;4.864;2022-10-31T04:17:07;6.68;;;2.72;;
71351;SDS011;59159;51.652;4.864;2022-10-31T04:19:35;7.73;;;2.77;;
71351;SDS011;59159;51.652;4.864;2022-10-31T04:22:01;5.97;;;2.70;;
71351;SDS011;59159;51.652;4.864;2022-10-31T04:24:27;7.15;;;3.65;;
71351;SDS011;59159;51.652;4.864;2022-10-31T04:26:53;8.32;;;4.38;;
71351;SDS011;59159;51.652;4.864;2022-10-31T04:29:18;10.37;;;5.07;;
71351;SDS011;59159;51.652;4.864;2022-10-31T04:31:44;9.32;;;4.97;;
71351;SDS011;59159;51.652;4.864;2022-10-31T04:34:10;11.30;;;5.65;;
71351;SDS011;59159;51.652;4.864;2022-10-31T04:36:36;10.10;;;5.10;;
71351;SDS011;59159;51.652;4.864;2022-10-31T04:39:05;10.27;;;5.07;;
71351;SDS011;59159;51.652;4.864;2022-10-31T04:41:31;9.75;;;4.13;;
71351;SDS011;59159;51.652;4.864;2022-10-31T04:43:57;9.50;;;4.13;;
71351;SDS011;59159;51.652;4.864;2022-10-31T04:46:23;9.77;;;4.88;;
71351;SDS011;59159;51.652;4.864;2022-10-31T04:48:49;7.15;;;3.30;;
71351;SDS011;59159;51.652;4.864;2022-10-31T04:51:16;7.72;;;3.80;;
71351;SDS011;59159;51.652;4.864;2022-10-31T04:53:42;7.10;;;3.10;;
71351;SDS011;59159;51.652;4.864;2022-10-31T04:56:08;8.25;;;3.75;;
71351;SDS011;59159;51.652;4.864;2022-10-31T04:58:34;7.82;;;3.40;;
71351;SDS011;59159;51.652;4.864;2022-10-31T05:01:00;7.27;;;3.60;;
71351;SDS011;59159;51.652;4.864;2022-10-31T05:03:26;9.32;;;3.33;;
71351;SDS011;59159;51.652;4.864;2022-10-31T05:05:52;10.40;;;3.40;;
71351;SDS011;59159;51.652;4.864;2022-10-31T05:08:18;8.83;;;3.90;;
71351;SDS011;59159;51.652;4.864;2022-10-31T05:10:44;8.85;;;3.78;;
71351;SDS011;59159;51.652;4.864;2022-10-31T05:13:10;8.02;;;3.13;;
71351;SDS011;59159;51.652;4.864;2022-10-31T05:15:36;8.68;;;3.28;;
71351;SDS011;59159;51.652;4.864;2022-10-31T05:18:02;6.63;;;2.97;;
71351;SDS011;59159;51.652;4.864;2022-10-31T05:20:29;6.55;;;3.00;;
71351;SDS011;59159;51.652;4.864;2022-10-31T05:22:56;12.30;;;3.10;;
71351;SDS011;59159;51.652;4.864;2022-10-31T05:25:22;7.60;;;3.00;;
71351;SDS011;59159;51.652;4.864;2022-10-31T05:27:49;7.22;;;3.20;;
71351;SDS011;59159;51.652;4.864;2022-10-31T05:30:18;8.02;;;2.70;;
71351;SDS011;59159;51.652;4.864;2022-10-31T05:32:46;5.97;;;2.40;;
71351;SDS011;59159;51.652;4.864;2022-10-31T05:35:13;8.45;;;3.10;;
71351;SDS011;59159;51.652;4.864;2022-10-31T05:37:40;5.95;;;2.47;;
71351;SDS011;59159;51.652;4.864;2022-10-31T05:40:07;7.00;;;2.65;;
71351;SDS011;59159;51.652;4.864;2022-10-31T05:42:33;6.60;;;2.80;;
71351;SDS011;59159;51.652;4.864;2022-10-31T05:44:59;6.13;;;2.42;;
71351;SDS011;59159;51.652;4.864;2022-10-31T05:47:25;6.35;;;2.70;;
71351;SDS011;59159;51.652;4.864;2022-10-31T05:49:51;6.93;;;3.03;;
71351;SDS011;59159;51.652;4.864;2022-10-31T05:52:17;9.32;;;3.53;;
71351;SDS011;59159;51.652;4.864;2022-10-31T05:54:43;7.35;;;2.88;;
71351;SDS011;59159;51.652;4.864;2022-10-31T05:57:09;6.33;;;2.53;;
71351;SDS011;59159;51.652;4.864;2022-10-31T05:59:35;6.55;;;2.55;;
71351;SDS011;59159;51.652;4.864;2022-10-31T06:02:01;6.97;;;2.58;;
71351;SDS011;59159;51.652;4.864;2022-10-31T06:04:27;6.78;;;2.83;;
71351;SDS011;59159;51.652;4.864;2022-10-31T06:06:53;5.47;;;2.40;;
71351;SDS011;59159;51.652;4.864;2022-10-31T06:09:19;6.78;;;2.90;;
71351;SDS011;59159;51.652;4.864;2022-10-31T06:11:45;6.32;;;2.70;;
71351;SDS011;59159;51.652;4.864;2022-10-31T06:14:11;7.00;;;3.50;;
71351;SDS011;59159;51.652;4.864;2022-10-31T06:16:37;7.97;;;2.67;;
71351;SDS011;59159;51.652;4.864;2022-10-31T06:19:03;6.72;;;3.00;;
71351;SDS011;59159;51.652;4.864;2022-10-31T06:21:29;8.10;;;2.80;;
71351;SDS011;59159;51.652;4.864;2022-10-31T06:23:55;6.95;;;2.58;;
71351;SDS011;59159;51.652;4.864;2022-10-31T06:26:21;6.55;;;3.17;;
71351;SDS011;59159;51.652;4.864;2022-10-31T06:28:47;7.90;;;2.70;;
71351;SDS011;59159;51.652;4.864;2022-10-31T06:31:13;8.03;;;3.03;;
71351;SDS011;59159;51.652;4.864;2022-10-31T06:33:42;6.68;;;2.92;;
71351;SDS011;59159;51.652;4.864;2022-10-31T06:36:08;6.97;;;3.20;;
71351;SDS011;59159;51.652;4.864;2022-10-31T06:38:34;6.17;;;2.77;;
71351;SDS011;59159;51.652;4.864;2022-10-31T06:41:04;7.03;;;2.55;;
71351;SDS011;59159;51.652;4.864;2022-10-31T06:43:30;7.43;;;2.72;;
71351;SDS011;59159;51.652;4.864;2022-10-31T06:45:56;6.60;;;2.57;;
71351;SDS011;59159;51.652;4.864;2022-10-31T06:48:23;7.88;;;2.65;;
71351;SDS011;59159;51.652;4.864;2022-10-31T06:50:49;8.15;;;2.78;;
71351;SDS011;59159;51.652;4.864;2022-10-31T06:53:15;6.68;;;2.72;;
71351;SDS011;59159;51.652;4.864;2022-10-31T06:55:41;6.30;;;2.60;;
71351;SDS011;59159;51.652;4.864;2022-10-31T06:58:08;9.50;;;2.97;;
71351;SDS011;59159;51.652;4.864;2022-10-31T07:00:34;8.52;;;2.90;;
71351;SDS011;59159;51.652;4.864;2022-10-31T07:03:05;7.23;;;2.70;;
71351;SDS011;59159;51.652;4.864;2022-10-31T07:05:31;8.45;;;2.80;;
71351;SDS011;59159;51.652;4.864;2022-10-31T07:07:58;10.15;;;2.88;;
71351;SDS011;59159;51.652;4.864;2022-10-31T07:10:24;8.20;;;3.03;;
71351;SDS011;59159;51.652;4.864;2022-10-31T07:12:54;6.70;;;2.80;;
71351;SDS011;59159;51.652;4.864;2022-10-31T07:15:21;7.35;;;3.00;;
71351;SDS011;59159;51.652;4.864;2022-10-31T07:17:47;7.93;;;3.05;;
71351;SDS011;59159;51.652;4.864;2022-10-31T07:20:13;6.93;;;2.83;;
71351;SDS011;59159;51.652;4.864;2022-10-31T07:22:39;7.93;;;2.95;;
71351;SDS011;59159;51.652;4.864;2022-10-31T07:25:05;7.65;;;3.00;;
71351;SDS011;59159;51.652;4.864;2022-10-31T07:27:38;6.93;;;2.87;;
71351;SDS011;59159;51.652;4.864;2022-10-31T07:30:04;6.88;;;3.20;;
71351;SDS011;59159;51.652;4.864;2022-10-31T07:32:37;7.07;;;2.67;;
71351;SDS011;59159;51.652;4.864;2022-10-31T07:35:04;7.67;;;2.97;;
71351;SDS011;59159;51.652;4.864;2022-10-31T07:37:29;6.43;;;3.17;;
71351;SDS011;59159;51.652;4.864;2022-10-31T07:39:55;8.68;;;3.08;;
71351;SDS011;59159;51.652;4.864;2022-10-31T07:42:21;8.02;;;2.95;;
71351;SDS011;59159;51.652;4.864;2022-10-31T07:44:47;7.33;;;3.07;;
71351;SDS011;59159;51.652;4.864;2022-10-31T07:47:13;8.90;;;3.00;;
71351;SDS011;59159;51.652;4.864;2022-10-31T07:49:39;8.20;;;2.85;;
71351;SDS011;59159;51.652;4.864;2022-10-31T07:52:05;7.47;;;3.10;;
71351;SDS011;59159;51.652;4.864;2022-10-31T07:54:31;7.07;;;3.00;;
71351;SDS011;59159;51.652;4.864;2022-10-31T07:56:57;6.93;;;2.53;;
71351;SDS011;59159;51.652;4.864;2022-10-31T07:59:23;8.43;;;3.23;;
71351;SDS011;59159;51.652;4.864;2022-10-31T08:01:50;7.47;;;3.10;;
71351;SDS011;59159;51.652;4.864;2022-10-31T08:04:16;8.25;;;3.17;;
71351;SDS011;59159;51.652;4.864;2022-10-31T08:06:42;7.18;;;3.53;;
71351;SDS011;59159;51.652;4.864;2022-10-31T08:09:08;6.40;;;2.83;;
71351;SDS011;59159;51.652;4.864;2022-10-31T08:11:34;7.10;;;3.58;;
71351;SDS011;59159;51.652;4.864;2022-10-31T08:14:00;6.28;;;2.95;;
71351;SDS011;59159;51.652;4.864;2022-10-31T08:16:26;6.70;;;3.03;;
71351;SDS011;59159;51.652;4.864;2022-10-31T08:18:52;7.57;;;3.05;;
71351;SDS011;59159;51.652;4.864;2022-10-31T08:21:20;7.07;;;3.05;;
71351;SDS011;59159;51.652;4.864;2022-10-31T08:23:46;7.43;;;2.70;;
71351;SDS011;59159;51.652;4.864;2022-10-31T08:26:12;7.13;;;2.72;;
71351;SDS011;59159;51.652;4.864;2022-10-31T08:28:38;6.68;;;2.75;;
71351;SDS011;59159;51.652;4.864;2022-10-31T08:31:04;7.53;;;3.10;;
71351;SDS011;59159;51.652;4.864;2022-10-31T08:33:30;6.97;;;2.60;;
71351;SDS011;59159;51.652;4.864;2022-10-31T08:35:59;6.30;;;3.00;;
71351;SDS011;59159;51.652;4.864;2022-10-31T08:38:25;7.97;;;3.00;;
71351;SDS011;59159;51.652;4.864;2022-10-31T08:40:51;6.83;;;2.87;;
71351;SDS011;59159;51.652;4.864;2022-10-31T08:43:18;7.13;;;2.80;;
71351;SDS011;59159;51.652;4.864;2022-10-31T08:45:44;7.10;;;3.28;;
71351;SDS011;59159;51.652;4.864;2022-10-31T08:48:13;7.57;;;2.83;;
71351;SDS011;59159;51.652;4.864;2022-10-31T08:50:39;7.55;;;3.00;;
71351;SDS011;59159;51.652;4.864;2022-10-31T08:53:06;7.28;;;3.13;;
71351;SDS011;59159;51.652;4.864;2022-10-31T08:55:33;8.30;;;3.00;;
71351;SDS011;59159;51.652;4.864;2022-10-31T08:58:00;8.83;;;3.00;;
71351;SDS011;59159;51.652;4.864;2022-10-31T09:00:26;6.97;;;2.70;;
71351;SDS011;59159;51.652;4.864;2022-10-31T09:02:56;6.53;;;2.70;;
71351;SDS011;59159;51.652;4.864;2022-10-31T09:05:22;7.10;;;3.13;;
71351;SDS011;59159;51.652;4.864;2022-10-31T09:07:48;6.50;;;3.00;;
71351;SDS011;59159;51.652;4.864;2022-10-31T09:10:14;6.70;;;2.85;;
71351;SDS011;59159;51.652;4.864;2022-10-31T09:12:40;6.83;;;3.63;;
71351;SDS011;59159;51.652;4.864;2022-10-31T09:15:06;9.25;;;3.08;;
71351;SDS011;59159;51.652;4.864;2022-10-31T09:17:32;6.70;;;3.00;;
71351;SDS011;59159;51.652;4.864;2022-10-31T09:19:58;6.63;;;3.28;;
71351;SDS011;59159;51.652;4.864;2022-10-31T09:22:24;6.77;;;3.30;;
71351;SDS011;59159;51.652;4.864;2022-10-31T09:24:50;7.47;;;2.83;;
71351;SDS011;59159;51.652;4.864;2022-10-31T09:27:16;6.93;;;2.85;;
71351;SDS011;59159;51.652;4.864;2022-10-31T09:29:42;6.60;;;3.27;;
71351;SDS011;59159;51.652;4.864;2022-10-31T09:32:08;5.97;;;2.60;;
71351;SDS011;59159;51.652;4.864;2022-10-31T09:34:34;6.40;;;2.67;;
71351;SDS011;59159;51.652;4.864;2022-10-31T09:37:00;7.57;;;2.87;;
71351;SDS011;59159;51.652;4.864;2022-10-31T09:39:26;6.45;;;2.72;;
71351;SDS011;59159;51.652;4.864;2022-10-31T09:42:03;8.88;;;2.78;;
71351;SDS011;59159;51.652;4.864;2022-10-31T09:44:34;6.85;;;2.72;;
71351;SDS011;59159;51.652;4.864;2022-10-31T09:52:15;8.38;;;3.33;;
71351;SDS011;59159;51.652;4.864;2022-10-31T09:54:45;8.03;;;3.07;;
71351;SDS011;59159;51.652;4.864;2022-10-31T09:57:12;6.65;;;2.90;;
71351;SDS011;59159;51.652;4.864;2022-10-31T09:59:39;6.90;;;2.78;;
71351;SDS011;59159;51.652;4.864;2022-10-31T10:02:12;7.50;;;2.70;;
71351;SDS011;59159;51.652;4.864;2022-10-31T10:09:59;7.75;;;2.97;;
71351;SDS011;59159;51.652;4.864;2022-10-31T10:15:27;7.95;;;3.22;;
71351;SDS011;59159;51.652;4.864;2022-10-31T10:18:09;6.60;;;2.95;;
71351;SDS011;59159;51.652;4.864;2022-10-31T10:25:41;8.45;;;3.20;;
71351;SDS011;59159;51.652;4.864;2022-10-31T10:28:20;6.73;;;3.00;;
71351;SDS011;59159;51.652;4.864;2022-10-31T10:30:48;7.15;;;3.00;;
71351;SDS011;59159;51.652;4.864;2022-10-31T10:33:36;7.78;;;2.72;;
71351;SDS011;59159;51.652;4.864;2022-10-31T10:36:10;6.68;;;3.20;;
71351;SDS011;59159;51.652;4.864;2022-10-31T10:38:39;7.53;;;3.13;;
71351;SDS011;59159;51.652;4.864;2022-10-31T10:41:06;7.28;;;2.97;;
71351;SDS011;59159;51.652;4.864;2022-10-31T10:43:36;7.40;;;3.13;;
71351;SDS011;59159;51.652;4.864;2022-10-31T10:51:37;8.05;;;2.83;;
71351;SDS011;59159;51.652;4.864;2022-10-31T10:59:11;7.63;;;3.53;;
71351;SDS011;59159;51.652;4.864;2022-10-31T11:01:38;9.40;;;3.40;;
71351;SDS011;59159;51.652;4.864;2022-10-31T11:04:05;7.33;;;3.23;;
71351;SDS011;59159;51.652;4.864;2022-10-31T11:06:34;6.80;;;2.83;;
71351;SDS011;59159;51.652;4.864;2022-10-31T11:09:08;7.25;;;3.45;;
71351;SDS011;59159;51.652;4.864;2022-10-31T11:11:34;8.57;;;3.10;;
71351;SDS011;59159;51.652;4.864;2022-10-31T11:14:04;8.18;;;3.60;;
71351;SDS011;59159;51.652;4.864;2022-10-31T11:16:40;7.43;;;3.53;;
71351;SDS011;59159;51.652;4.864;2022-10-31T11:19:18;6.80;;;3.20;;
71351;SDS011;59159;51.652;4.864;2022-10-31T11:21:45;7.53;;;3.13;;
71351;SDS011;59159;51.652;4.864;2022-10-31T11:24:16;8.05;;;3.78;;
71351;SDS011;59159;51.652;4.864;2022-10-31T11:26:43;8.02;;;3.38;;
71351;SDS011;59159;51.652;4.864;2022-10-31T11:29:14;7.90;;;3.00;;
71351;SDS011;59159;51.652;4.864;2022-10-31T11:31:41;7.00;;;3.35;;
71351;SDS011;59159;51.652;4.864;2022-10-31T11:36:48;8.60;;;3.10;;
71351;SDS011;59159;51.652;4.864;2022-10-31T11:39:18;7.57;;;3.30;;
71351;SDS011;59159;51.652;4.864;2022-10-31T11:41:45;7.65;;;3.15;;
71351;SDS011;59159;51.652;4.864;2022-10-31T11:44:28;8.77;;;3.50;;
71351;SDS011;59159;51.652;4.864;2022-10-31T11:46:56;9.82;;;4.03;;
71351;SDS011;59159;51.652;4.864;2022-10-31T11:49:36;8.63;;;4.07;;
71351;SDS011;59159;51.652;4.864;2022-10-31T11:52:06;18.48;;;8.13;;
71351;SDS011;59159;51.652;4.864;2022-10-31T11:54:34;22.07;;;10.57;;
71351;SDS011;59159;51.652;4.864;2022-10-31T11:57:02;26.73;;;11.60;;
71351;SDS011;59159;51.652;4.864;2022-10-31T11:59:30;22.00;;;11.88;;
71351;SDS011;59159;51.652;4.864;2022-10-31T12:01:57;26.53;;;13.27;;
71351;SDS011;59159;51.652;4.864;2022-10-31T12:04:43;25.10;;;11.93;;
71351;SDS011;59159;51.652;4.864;2022-10-31T12:07:11;28.25;;;11.50;;
71351;SDS011;59159;51.652;4.864;2022-10-31T12:09:37;24.33;;;12.63;;
71351;SDS011;59159;51.652;4.864;2022-10-31T12:12:21;27.75;;;13.88;;
71351;SDS011;59159;51.652;4.864;2022-10-31T12:17:29;28.60;;;13.70;;
71351;SDS011;59159;51.652;4.864;2022-10-31T12:22:47;32.38;;;14.82;;
71351;SDS011;59159;51.652;4.864;2022-10-31T12:30:40;33.15;;;14.38;;
71351;SDS011;59159;51.652;4.864;2022-10-31T12:38:29;29.00;;;14.82;;
71351;SDS011;59159;51.652;4.864;2022-10-31T12:41:19;27.40;;;13.55;;
71351;SDS011;59159;51.652;4.864;2022-10-31T12:43:59;29.60;;;14.52;;
71351;SDS011;59159;51.652;4.864;2022-10-31T12:51:54;31.95;;;14.80;;
71351;SDS011;59159;51.652;4.864;2022-10-31T12:59:36;31.00;;;14.80;;
71351;SDS011;59159;51.652;4.864;2022-10-31T13:07:19;31.92;;;15.10;;
71351;SDS011;59159;51.652;4.864;2022-10-31T13:09:49;35.10;;;15.40;;
71351;SDS011;59159;51.652;4.864;2022-10-31T13:12:17;28.50;;;15.10;;
71351;SDS011;59159;51.652;4.864;2022-10-31T13:14:46;28.45;;;15.35;;
71351;SDS011;59159;51.652;4.864;2022-10-31T13:17:22;29.67;;;14.90;;
71351;SDS011;59159;51.652;4.864;2022-10-31T13:19:49;33.70;;;15.20;;
71351;SDS011;59159;51.652;4.864;2022-10-31T13:22:17;29.08;;;14.40;;
71351;SDS011;59159;51.652;4.864;2022-10-31T13:25:30;29.60;;;14.05;;
71351;SDS011;59159;51.652;4.864;2022-10-31T13:27:35;28.83;;;14.00;;
71351;SDS011;59159;51.652;4.864;2022-10-31T13:30:17;28.45;;;14.90;;
71351;SDS011;59159;51.652;4.864;2022-10-31T13:32:48;28.27;;;13.52;;
71351;SDS011;59159;51.652;4.864;2022-10-31T13:38:02;29.93;;;14.37;;
71351;SDS011;59159;51.652;4.864;2022-10-31T13:40:33;31.75;;;14.13;;
71351;SDS011;59159;51.652;4.864;2022-10-31T13:43:08;26.08;;;14.15;;
71351;SDS011;59159;51.652;4.864;2022-10-31T13:45:46;26.50;;;13.47;;
71351;SDS011;59159;51.652;4.864;2022-10-31T13:50:42;29.80;;;15.23;;
71351;SDS011;59159;51.652;4.864;2022-10-31T13:58:40;27.88;;;14.32;;
71351;SDS011;59159;51.652;4.864;2022-10-31T14:01:19;27.52;;;14.75;;
71351;SDS011;59159;51.652;4.864;2022-10-31T14:03:46;27.17;;;13.90;;
71351;SDS011;59159;51.652;4.864;2022-10-31T14:06:13;25.20;;;12.93;;
71351;SDS011;59159;51.652;4.864;2022-10-31T14:08:41;24.90;;;14.23;;
71351;SDS011;59159;51.652;4.864;2022-10-31T14:11:18;25.23;;;13.50;;
71351;SDS011;59159;51.652;4.864;2022-10-31T14:13:46;27.23;;;13.80;;
71351;SDS011;59159;51.652;4.864;2022-10-31T14:16:19;28.25;;;13.95;;
71351;SDS011;59159;51.652;4.864;2022-10-31T14:18:50;24.50;;;14.00;;
71351;SDS011;59159;51.652;4.864;2022-10-31T14:23:49;28.27;;;14.10;;
71351;SDS011;59159;51.652;4.864;2022-10-31T14:26:20;26.23;;;14.02;;
71351;SDS011;59159;51.652;4.864;2022-10-31T14:28:47;28.80;;;13.57;;
71351;SDS011;59159;51.652;4.864;2022-10-31T14:33:57;31.00;;;15.35;;
71351;SDS011;59159;51.652;4.864;2022-10-31T14:36:30;29.90;;;13.93;;
71351;SDS011;59159;51.652;4.864;2022-10-31T14:39:09;26.33;;;14.00;;
71351;SDS011;59159;51.652;4.864;2022-10-31T14:44:14;28.27;;;14.10;;
71351;SDS011;59159;51.652;4.864;2022-10-31T14:51:45;28.88;;;13.32;;
71351;SDS011;59159;51.652;4.864;2022-10-31T14:54:13;28.00;;;14.47;;
71351;SDS011;59159;51.652;4.864;2022-10-31T14:56:46;27.30;;;13.90;;
71351;SDS011;59159;51.652;4.864;2022-10-31T14:59:14;28.23;;;13.15;;
71351;SDS011;59159;51.652;4.864;2022-10-31T15:01:46;28.80;;;13.73;;
71351;SDS011;59159;51.652;4.864;2022-10-31T15:04:29;27.15;;;14.13;;
71351;SDS011;59159;51.652;4.864;2022-10-31T15:07:04;24.13;;;12.80;;
71351;SDS011;59159;51.652;4.864;2022-10-31T15:09:33;27.57;;;14.07;;
71351;SDS011;59159;51.652;4.864;2022-10-31T15:12:00;24.00;;;12.25;;
71351;SDS011;59159;51.652;4.864;2022-10-31T15:14:32;23.85;;;12.50;;
71351;SDS011;59159;51.652;4.864;2022-10-31T15:17:01;24.63;;;12.63;;
71351;SDS011;59159;51.652;4.864;2022-10-31T15:19:29;24.30;;;12.87;;
71351;SDS011;59159;51.652;4.864;2022-10-31T15:21:56;32.03;;;12.88;;
71351;SDS011;59159;51.652;4.864;2022-10-31T15:24:34;24.90;;;11.90;;
71351;SDS011;59159;51.652;4.864;2022-10-31T15:27:01;27.93;;;14.40;;
71351;SDS011;59159;51.652;4.864;2022-10-31T15:29:36;24.98;;;13.55;;
71351;SDS011;59159;51.652;4.864;2022-10-31T15:32:26;30.25;;;12.77;;
71351;SDS011;59159;51.652;4.864;2022-10-31T15:34:58;23.97;;;11.50;;
71351;SDS011;59159;51.652;4.864;2022-10-31T15:37:25;24.63;;;12.60;;
71351;SDS011;59159;51.652;4.864;2022-10-31T15:39:52;25.30;;;12.55;;
71351;SDS011;59159;51.652;4.864;2022-10-31T15:47:44;26.95;;;11.50;;
71351;SDS011;59159;51.652;4.864;2022-10-31T15:50:20;22.88;;;11.05;;
71351;SDS011;59159;51.652;4.864;2022-10-31T15:52:48;21.60;;;10.37;;
71351;SDS011;59159;51.652;4.864;2022-10-31T15:57:44;20.90;;;9.80;;
71351;SDS011;59159;51.652;4.864;2022-10-31T16:00:23;20.13;;;9.93;;
71351;SDS011;59159;51.652;4.864;2022-10-31T16:02:50;18.27;;;8.52;;
71351;SDS011;59159;51.652;4.864;2022-10-31T16:05:31;19.63;;;10.10;;
71351;SDS011;59159;51.652;4.864;2022-10-31T16:07:58;18.85;;;8.40;;
71351;SDS011;59159;51.652;4.864;2022-10-31T16:10:24;19.80;;;8.63;;
71351;SDS011;59159;51.652;4.864;2022-10-31T16:12:53;21.33;;;8.35;;
71351;SDS011;59159;51.652;4.864;2022-10-31T16:15:20;18.45;;;7.90;;
71351;SDS011;59159;51.652;4.864;2022-10-31T16:17:47;16.50;;;7.40;;
71351;SDS011;59159;51.652;4.864;2022-10-31T16:20:16;19.45;;;7.35;;
71351;SDS011;59159;51.652;4.864;2022-10-31T16:22:46;14.73;;;7.47;;
71351;SDS011;59159;51.652;4.864;2022-10-31T16:25:18;15.50;;;7.57;;
71351;SDS011;59159;51.652;4.864;2022-10-31T16:27:47;17.40;;;7.70;;
71351;SDS011;59159;51.652;4.864;2022-10-31T16:30:27;15.43;;;7.13;;
71351;SDS011;59159;51.652;4.864;2022-10-31T16:32:55;17.23;;;7.47;;
71351;SDS011;59159;51.652;4.864;2022-10-31T16:35:27;15.57;;;7.60;;
71351;SDS011;59159;51.652;4.864;2022-10-31T16:37:53;17.02;;;8.00;;
71351;SDS011;59159;51.652;4.864;2022-10-31T16:40:19;17.25;;;6.78;;
71351;SDS011;59159;51.652;4.864;2022-10-31T16:42:46;18.10;;;8.67;;
71351;SDS011;59159;51.652;4.864;2022-10-31T16:45:16;17.77;;;8.05;;
71351;SDS011;59159;51.652;4.864;2022-10-31T16:47:43;17.38;;;8.57;;
71351;SDS011;59159;51.652;4.864;2022-10-31T16:50:14;18.40;;;8.87;;
71351;SDS011;59159;51.652;4.864;2022-10-31T16:52:40;22.38;;;8.93;;